Historyczne dane pomiarowe

Dodano dane terminowe – wersja testowa.

Dane z okresu 1951-2019

Wersja bazy: 1.34 [2019-03-16, lista zmian], aktualizacja planowana na 2019-04-15

Dane meteo z obszaru Polski uzyskane na podstawie danych udostępnionych przez Instytut Meteorologii i Gospodarki Wodnej – Państwowy Instytut Badawczy.

 

Wybierz Datę:    

       

TemperaturaWilgotnośćWiatrCiśnienieOpadyŚniegCzas trwania zjawisk
 Stacja t tx tn tng RH VA  wxwx mslp ppp RRR   cm mm wxwxwxwxwxwxwx
1961-08-14 14.7 19.1 6.9--- 1.7 1.0---- 0.0------------
1961-08-13 12.5 14.5 10.8--- 5.3 1.3---- 1.6------------
1961-08-12 17.2 24.5 14.0--- 5.3 0.0---- 21.4------------
1961-08-11 22.0 29.9 19.1--- 4.0 1.7---- 0.0------------
1961-08-10 23.8 30.2 17.2--- 2.7 0.3---- 0.0------------
1961-08-09 22.7 28.4 16.8--- 6.7 1.0---- 14.6------------
1961-08-08 17.9 23.5 14.8--- 4.0 0.7---- 0.0------------
1961-08-07 22.6 28.4 16.6--- 4.0 1.0---- 9.2------------
1961-08-06 23.2 30.6 12.6--- 0.0 0.7---- 0.0------------
1961-08-05 18.9 24.5 15.6--- 2.3 1.3---- 0.0------------
1961-08-04 16.3 21.2 7.6--- 5.0 1.7---- 0.0------------
1961-08-03 15.7 26.0 12.6--- 5.0 1.0---- 0.0------------
1961-08-02 20.1 26.0 7.6--- 3.7 1.3---- 0.0------------
1961-08-01 16.7 21.2 11.4--- 2.7 1.3---- 0.0------------
1961-07-31 13.5 18.6 11.1--- 7.3 2.0---- 7.2------------
1961-07-30 10.9 17.6 8.8--- 8.0 1.3---- 16.6------------
1961-07-29 15.8 18.4 11.0--- 8.0 1.3---- 15.5------------
1961-07-28 18.6 22.7 17.1--- 6.7 1.0---- 10.0------------
1961-07-27 21.7 27.5 15.2--- 5.7 1.7---- 0.0------------
1961-07-26 16.3 23.5 8.5--- 0.3 1.0---- 0.0------------
1961-07-25 13.2 16.1 10.1--- 6.7 1.3---- 0.0------------
1961-07-24 14.0 18.2 11.8--- 4.7 1.0---- 0.0------------
1961-07-23 14.9 22.6 10.4--- 6.3 1.0---- 0.0------------
1961-07-22 14.8 17.8 7.5--- 5.7 1.3---- 5.5------------
1961-07-21 14.6 19.8 11.1--- 6.0 1.3---- 1.2------------
1961-07-20 13.6 19.8 8.5--- 5.0 1.7---- 0.0------------
1961-07-19 14.8 21.0 11.8--- 4.7 1.3---- 1.2------------
1961-07-18 15.1 19.8 11.1--- 6.0 1.7---- 0.0------------
1961-07-17 14.4 20.6 12.6--- 3.3 2.0---- 1.4------------
1961-07-16 16.3 22.6 13.6--- 6.3 1.7---- 0.0------------
1961-07-15 19.2 24.5 14.6--- 3.0 1.0---- 21.2------------
1961-07-14 15.5 19.8 13.8--- 4.7 2.0---- 0.0------------
1961-07-13 20.2 28.4 14.8--- 4.0 1.3---- 16.0------------
1961-07-12 22.7 26.9 13.2--- 2.7 1.7---- 0.0------------
1961-07-11 15.4 23.5 8.9--- 2.7 1.0---- 0.0------------
1961-07-10 13.9 20.2 10.6--- 4.3 1.3---- 0.0------------
1961-07-09 15.4 22.6 7.6--- 6.7 1.0---- 4.6------------
1961-07-08 14.9 20.6 6.6--- 1.3 0.7---- 0.0------------
1961-07-07 12.9 17.6 8.5--- 3.7 1.0---- 0.0------------
1961-07-06 13.0 16.5 8.9--- 6.7 1.7---- 0.0------------
1961-07-05 13.9 18.6 12.8--- 3.7 0.7---- 0.0------------
1961-07-04 20.3 28.9 16.2--- 3.0 1.3---- 5.6------------
1961-07-03 22.5 30.6 14.2--- 0.0 0.7---- 0.0------------
1961-07-02 21.5 28.0 12.8--- 0.0 0.7---- 0.0------------
1961-07-01 19.5 25.7 10.8--- 0.0 0.7---- 0.0------------
1961-06-30 18.9 24.5 9.1--- 0.3 1.0---- 0.0------------
1961-06-29 14.9 21.6 8.9--- 1.3 0.3---- 0.0------------
1961-06-28 14.0 18.6 12.6--- 4.3 1.0---- 0.0------------
1961-06-27 23.9 32.6 18.4--- 4.7 1.7---- 6.6------------
1961-06-26 20.7 29.4 16.1--- 4.7 1.3---- 2.0------------
1961-06-25 21.8 29.4 12.6--- 0.3 1.3---- 0.0------------
1961-06-24 19.7 25.5 11.6--- 1.3 1.3---- 0.0------------
1961-06-23 18.5 23.7 15.8--- 1.7 1.3---- 0.0------------
1961-06-22 18.8 26.5 9.5--- 4.0 0.7---- 7.0------------
1961-06-21 17.9 24.5 6.4--- 1.3 1.3---- 0.0------------
1961-06-20 15.4 21.7 11.4--- 1.3 1.3---- 0.0------------
1961-06-19 19.6 26.7 16.6--- 4.7 1.3---- 0.0------------
1961-06-18 19.2 26.0 9.5--- 0.3 1.3---- 0.0------------
1961-06-17 16.8 23.0 6.9--- 1.3 1.0---- 0.0------------
1961-06-16 14.1 20.6 8.3--- 1.0 0.7---- 0.0------------
1265.5 ms

 

Źródłem pochodzenia danych jest Instytut Meteorologii i Gospodarki Wodnej – Państwowy Instytut Badawczy. Dane Instytutu Meteorologii i Gospodarki Wodnej – Państwowego Instytutu Badawczego zostały przetworzone.

Dane źródłowe można odnaleźć na stronie https://dane.imgw.pl